This is the latest recevied weather packets stored in our database for station/object KC1TLF-15. If no packets are shown the sender has not sent any weather packets the latest 1 day(s).
| Time | Temp. | Humidity | Pressure | Rain* | Wind** | Luminosity | Snow |
|---|---|---|---|---|---|---|---|
| 1778065270 | 16.67° C | 79% | 1017.7 hPa | 0 mm | 0.45 m/s, 12° | - | - |
| 1778063471 | 15° C | 84% | 1017.9 hPa | 0 mm | 0 m/s | - | - |
| 1778062268 | 15° C | 84% | 1017.8 hPa | 0 mm | 0 m/s | - | - |
| 1778061670 | 15° C | 84% | 1017.7 hPa | 0 mm | 0 m/s | - | - |
| 1778059871 | 15° C | 83% | 1017.6 hPa | 0 mm | 0 m/s | - | - |
| 1778058070 | 15° C | 82% | 1017.6 hPa | 0 mm | 0 m/s | 0 W/m² | - |
| 1778053271 | 16.11° C | 77% | 1017.6 hPa | 0 mm | 1.34 m/s, 297° | 0 W/m² | - |
| 1778052669 | 16.11° C | 77% | 1017.4 hPa | 0 mm | 0 m/s | 0 W/m² | - |
| 1778052070 | 16.11° C | 76% | 1017.5 hPa | 0 mm | 0.45 m/s, 350° | 0 W/m² | - |
| 1778051471 | 16.11° C | 76% | 1017.3 hPa | 0 mm | 0 m/s | 0 W/m² | - |
| 1778050870 | 16.67° C | 74% | 1017.3 hPa | 0 mm | 0 m/s | 0 W/m² | - |
| 1778049670 | 16.67° C | 73% | 1017.2 hPa | 0 mm | 0 m/s | 0 W/m² | - |
| 1778049071 | 16.67° C | 72% | 1017.3 hPa | 0 mm | 0 m/s | 0 W/m² | - |
| 1778048470 | 17.22° C | 71% | 1017.3 hPa | 0 mm | 0.45 m/s, 329° | 0 W/m² | - |
| 1778046670 | 17.22° C | 69% | 1017.1 hPa | 0 mm | 0 m/s | 0 W/m² | - |
| 1778044871 | 16.67° C | 69% | 1017.4 hPa | 0 mm | 0.45 m/s, 291° | 0 W/m² | - |
| 1778044270 | 16.67° C | 69% | 1017.4 hPa | 0 mm | 0 m/s | 0 W/m² | - |
| 1778043671 | 16.67° C | 69% | 1017.6 hPa | 0 mm | 0 m/s | 0 W/m² | - |
| 1778043070 | 17.22° C | 68% | 1017.4 hPa | 0 mm | 0.45 m/s, 328° | 0 W/m² | - |
| 1778042469 | 17.22° C | 68% | 1017.4 hPa | 0 mm | 0 m/s | 0 W/m² | - |
| 1778041870 | 17.22° C | 67% | 1017.8 hPa | 0 mm | 0 m/s | 0 W/m² | - |
| 1778041270 | 16.67° C | 69% | 1017.4 hPa | 0 mm | 0.89 m/s, 312° | 0 W/m² | - |
| 1778040670 | 16.67° C | 69% | 1017.4 hPa | 0 mm | 0 m/s | 0 W/m² | - |
| 1778040070 | 16.67° C | 69% | 1017.8 hPa | 0 mm | 0.45 m/s, 286° | 0 W/m² | - |
| 1778039470 | 16.67° C | 68% | 1017.6 hPa | 0 mm | 0 m/s | 0 W/m² | - |
* Rain latest hour (hover to see other rain measurements)
** Current wind speed in m/s (hover to see current wind gust speed)